Time;durP1;ratioP1;P1;durP2;ratioP2;P2;SDS_P1;SDS_P2;PMS_P1;PMS_P2;Temp;Humidity;BMP_temperature;BMP_pressure;BME280_temperature;BME280_humidity;BME280_pressure;Samples;Min_cycle;Max_cycle;Signal;HPM_P1;HPM_P2
2023/07/07 00:03:30;;;;;;;6.60;2.10;;;13.90;1.00;;;;;;4989434;28;20420;-72
2023/07/07 00:05:57;;;;;;;6.53;2.43;;;13.90;1.00;;;;;;4990557;28;20452;-72
2023/07/07 00:08:22;;;;;;;13.03;2.03;;;13.80;1.00;;;;;;5009170;28;20461;-72
2023/07/07 00:10:50;;;;;;;4.23;1.83;;;13.80;1.00;;;;;;4997049;28;20439;-72
2023/07/07 00:13:20;;;;;;;11.63;1.60;;;13.80;1.00;;;;;;5007640;28;20185;-72
2023/07/07 00:15:46;;;;;;;1.93;1.70;;;13.70;1.00;;;;;;5008635;28;20441;-72
2023/07/07 00:18:26;;;;;;;3.93;2.10;;;13.70;1.00;;;;;;5008816;28;20462;-72
2023/07/07 00:20:56;;;;;;;3.80;1.70;;;13.70;1.00;;;;;;4985598;28;20485;-72
2023/07/07 00:23:24;;;;;;;10.67;2.70;;;13.50;1.00;;;;;;4998536;28;20439;-72
2023/07/07 00:26:07;;;;;;;8.03;2.10;;;13.50;1.00;;;;;;4999529;28;20407;-72
2023/07/07 00:28:33;;;;;;;6.27;1.80;;;13.40;1.00;;;;;;5004436;28;20417;-72
2023/07/07 00:31:00;;;;;;;4.53;2.03;;;13.40;1.00;;;;;;4994157;28;20437;-72
2023/07/07 00:36:47;;;;;;;8.80;2.10;;;13.30;1.00;;;;;;4981504;28;20460;-82
2023/07/07 00:42:35;;;;;;;7.80;1.60;;;13.30;1.00;;;;;;4995042;28;20596;-80
2023/07/07 00:48:43;;;;;;;4.43;2.30;;;13.20;1.00;;;;;;5005288;28;20222;-72
2023/07/07 00:51:14;;;;;;;2.90;2.20;;;13.20;1.00;;;;;;5007903;28;20929;-72
2023/07/07 00:53:43;;;;;;;2.83;1.83;;;13.20;1.00;;;;;;4995734;28;20409;-72
2023/07/07 00:56:15;;;;;;;2.80;1.90;;;13.20;1.00;;;;;;4994000;28;20414;-72
2023/07/07 00:58:42;;;;;;;2.83;1.93;;;13.20;1.00;;;;;;5011409;28;20422;-72
2023/07/07 01:01:12;;;;;;;6.00;2.37;;;13.10;1.00;;;;;;5021681;28;20990;-72
2023/07/07 01:03:53;;;;;;;3.67;1.67;;;13.10;1.00;;;;;;5002808;28;20429;-80
2023/07/07 01:07:07;;;;;;;3.43;1.83;;;13.00;1.00;;;;;;5001296;28;20435;-80
2023/07/07 01:12:54;;;;;;;1.87;1.77;;;12.90;1.00;;;;;;4987513;28;20459;-80
2023/07/07 01:18:57;;;;;;;4.63;2.03;;;12.90;1.00;;;;;;4981318;28;20204;-72
2023/07/07 01:21:29;;;;;;;6.23;2.50;;;12.80;1.00;;;;;;4993724;28;20432;-72
2023/07/07 01:24:31;;;;;;;2.73;1.83;;;12.80;1.00;;;;;;4992453;28;20433;-72
2023/07/07 01:27:23;;;;;;;4.33;1.80;;;12.80;1.00;;;;;;4990821;28;20417;-72
2023/07/07 01:30:14;;;;;;;6.83;2.00;;;12.80;1.00;;;;;;4993315;28;20441;-72
2023/07/07 01:33:25;;;;;;;9.33;2.07;;;12.80;1.00;;;;;;4996457;28;20876;-80
2023/07/07 01:36:31;;;;;;;4.00;1.80;;;12.80;1.00;;;;;;5009637;28;20434;-81
2023/07/07 01:39:02;;;;;;;3.53;2.00;;;12.70;1.00;;;;;;5013543;28;20393;-80
2023/07/07 01:45:51;;;;;;;5.60;1.67;;;12.70;1.00;;;;;;4983113;28;20836;-80
2023/07/07 01:48:30;;;;;;;3.97;2.33;;;12.60;1.00;;;;;;4989947;28;20906;-72
2023/07/07 01:50:56;;;;;;;3.33;1.77;;;12.60;1.00;;;;;;4991792;28;20443;-72
2023/07/07 01:53:27;;;;;;;2.73;2.03;;;12.60;1.00;;;;;;4991247;28;20415;-72
2023/07/07 01:55:57;;;;;;;3.07;2.40;;;12.50;1.00;;;;;;4992233;28;20414;-72
2023/07/07 01:58:24;;;;;;;8.23;2.00;;;12.50;1.00;;;;;;5010692;28;20407;-72
2023/07/07 02:00:52;;;;;;;2.00;1.90;;;12.50;1.00;;;;;;5010279;28;20456;-72
2023/07/07 02:03:21;;;;;;;6.43;2.60;;;12.50;1.00;;;;;;5008641;28;20473;-72
2023/07/07 02:05:47;;;;;;;2.30;1.57;;;12.60;1.00;;;;;;4990057;28;20466;-72
2023/07/07 02:08:13;;;;;;;4.63;1.83;;;12.50;1.00;;;;;;4996787;28;20507;-72
2023/07/07 02:10:39;;;;;;;8.77;1.93;;;12.50;1.00;;;;;;4990146;28;20834;-72
2023/07/07 02:13:05;;;;;;;2.63;1.87;;;12.50;1.00;;;;;;4996409;28;20479;-72
2023/07/07 02:15:31;;;;;;;5.17;2.23;;;12.50;1.00;;;;;;4993663;28;20225;-72
2023/07/07 02:18:02;;;;;;;2.40;2.00;;;12.50;1.00;;;;;;4994532;28;20456;-72
2023/07/07 02:20:27;;;;;;;5.90;1.80;;;12.40;1.00;;;;;;4994431;28;20204;-72
2023/07/07 02:22:53;;;;;;;2.87;2.00;;;12.40;1.00;;;;;;4994299;28;20941;-72
2023/07/07 02:25:19;;;;;;;2.60;1.83;;;12.40;1.00;;;;;;4995267;28;20518;-72
2023/07/07 02:27:44;;;;;;;5.17;2.17;;;12.40;1.00;;;;;;4997122;28;20241;-72
2023/07/07 02:30:11;;;;;;;3.10;2.00;;;12.40;1.00;;;;;;4984508;28;20537;-72
2023/07/07 02:32:36;;;;;;;4.20;2.00;;;12.40;1.00;;;;;;4997020;28;20186;-72
2023/07/07 02:41:46;;;;;;;5.63;2.27;;;12.30;1.00;;;;;;4988944;28;20429;-85
2023/07/07 02:50:55;;;;;;;2.40;1.83;;;12.20;1.00;;;;;;4997454;28;20439;-83
2023/07/07 02:57:13;;;;;;;3.40;2.00;;;12.20;1.00;;;;;;4996532;28;20196;-83
2023/07/07 02:59:38;;;;;;;1.87;1.67;;;12.20;1.00;;;;;;4996517;28;20461;-83
2023/07/07 03:06:19;;;;;;;2.60;1.87;;;12.10;1.00;;;;;;5001962;28;20196;-83
2023/07/07 03:12:31;;;;;;;1.87;1.70;;;12.10;1.00;;;;;;4996066;28;20477;-82
2023/07/07 03:14:57;;;;;;;3.30;1.87;;;12.00;1.00;;;;;;5009181;28;20440;-83
2023/07/07 03:21:08;;;;;;;5.70;2.47;;;12.00;1.00;;;;;;5009539;28;20723;-83
2023/07/07 03:27:13;;;;;;;1.93;1.80;;;11.90;1.00;;;;;;4987062;28;20550;-83
2023/07/07 03:29:43;;;;;;;3.03;1.87;;;11.90;1.00;;;;;;5001112;28;21089;-83
2023/07/07 03:32:31;;;;;;;2.40;2.20;;;11.90;1.00;;;;;;5001873;28;20436;-82
2023/07/07 03:35:49;;;;;;;2.97;2.17;;;11.90;1.00;;;;;;4991539;28;20483;-86
2023/07/07 03:41:37;;;;;;;2.43;2.00;;;11.90;1.00;;;;;;5015091;28;20403;-84
2023/07/07 03:44:43;;;;;;;2.77;2.00;;;12.00;1.00;;;;;;4988382;28;20441;-86
2023/07/07 03:47:44;;;;;;;2.40;1.50;;;11.90;1.00;;;;;;4994543;28;20423;-85
2023/07/07 03:53:32;;;;;;;3.20;1.90;;;12.00;1.00;;;;;;4996034;28;20393;-82
2023/07/07 03:56:19;;;;;;;9.33;1.97;;;12.00;1.00;;;;;;4998802;28;20435;-84
2023/07/07 04:02:43;;;;;;;3.40;1.67;;;12.10;1.00;;;;;;5002163;28;20465;-83
2023/07/07 04:05:13;;;;;;;2.70;1.97;;;12.20;1.00;;;;;;4987262;28;20436;-83
2023/07/07 04:07:55;;;;;;;3.57;1.70;;;12.10;1.00;;;;;;4994047;28;20457;-83
2023/07/07 04:13:45;;;;;;;7.20;2.40;;;12.30;1.00;;;;;;4995836;28;21017;-84
2023/07/07 04:19:55;;;;;;;3.90;2.07;;;12.40;1.00;;;;;;4996901;28;20416;-86
2023/07/07 04:22:43;;;;;;;9.93;2.13;;;12.40;1.00;;;;;;4993734;28;20421;-86
2023/07/07 04:25:14;;;;;;;5.50;2.10;;;12.50;1.00;;;;;;4998973;28;20405;-86
2023/07/07 04:27:41;;;;;;;6.07;2.13;;;12.50;1.00;;;;;;4986603;28;20459;-86
2023/07/07 04:30:19;;;;;;;2.40;2.00;;;12.50;1.00;;;;;;4996333;28;20441;-86
2023/07/07 04:36:14;;;;;;;2.37;2.00;;;;;;;;;;4992723;28;20422;-84
2023/07/07 04:39:19;;;;;;;2.23;1.83;;;12.70;1.00;;;;;;4994422;28;20494;-83
2023/07/07 04:41:55;;;;;;;2.93;1.60;;;12.80;1.00;;;;;;5007833;28;20432;-83
2023/07/07 04:44:43;;;;;;;5.47;1.87;;;12.90;1.00;;;;;;5004623;28;20781;-84
2023/07/07 04:47:26;;;;;;;3.43;1.90;;;;;;;;;;4984655;28;20453;-84
2023/07/07 04:49:56;;;;;;;7.03;2.23;;;13.10;1.00;;;;;;5002987;28;20942;-83
2023/07/07 04:52:22;;;;;;;4.83;2.23;;;13.10;1.00;;;;;;4997827;28;20767;-84
2023/07/07 04:55:25;;;;;;;3.83;2.20;;;13.20;1.00;;;;;;4987112;28;20429;-84
2023/07/07 04:58:13;;;;;;;3.10;2.33;;;13.30;1.00;;;;;;4991117;28;20178;-84
2023/07/07 05:00:41;;;;;;;2.93;2.13;;;13.40;1.00;;;;;;4985756;28;20441;-84
2023/07/07 05:03:13;;;;;;;3.53;1.93;;;13.40;1.00;;;;;;5002219;28;20832;-84
2023/07/07 05:05:56;;;;;;;4.80;2.00;;;13.50;1.00;;;;;;5011906;28;20436;-84
2023/07/07 05:08:40;;;;;;;4.00;2.23;;;13.60;1.00;;;;;;4993510;28;20475;-84
2023/07/07 05:11:49;;;;;;;7.80;2.83;;;13.80;1.00;;;;;;4991657;28;20413;-84
2023/07/07 05:14:19;;;;;;;8.67;2.30;;;13.80;1.00;;;;;;5006301;28;20505;-84
2023/07/07 05:20:43;;;;;;;9.13;1.80;;;14.10;1.00;;;;;;4978862;28;20447;-86
2023/07/07 05:23:43;;;;;;;4.80;1.93;;;14.20;1.00;;;;;;5000288;28;20434;-84
2023/07/07 05:26:14;;;;;;;3.80;2.20;;;14.40;1.00;;;;;;5000415;28;20418;-84
2023/07/07 05:28:43;;;;;;;11.73;2.70;;;14.50;1.00;;;;;;5003172;28;20427;-84
2023/07/07 05:31:10;;;;;;;7.53;2.90;;;14.80;1.00;;;;;;4994927;28;20479;-74
2023/07/07 05:33:38;;;;;;;4.27;2.37;;;14.90;1.00;;;;;;5002788;28;20417;-74
2023/07/07 05:40:01;;;;;;;8.33;2.00;;;15.20;1.00;;;;;;5012843;28;20909;-77
2023/07/07 05:42:28;;;;;;;8.20;2.30;;;15.20;1.00;;;;;;5010607;28;20405;-77
2023/07/07 05:44:55;;;;;;;6.63;2.30;;;15.40;1.00;;;;;;4997288;28;20520;-77
2023/07/07 05:47:43;;;;;;;15.63;2.03;;;15.50;1.00;;;;;;5008278;28;20453;-77
2023/07/07 05:50:45;;;;;;;4.83;2.03;;;15.70;1.00;;;;;;4992530;28;20436;-83
2023/07/07 05:53:27;;;;;;;7.63;2.00;;;;;;;;;;4995915;28;20422;-82
2023/07/07 05:56:08;;;;;;;6.40;2.20;;;16.10;1.00;;;;;;5014278;28;20478;-82
2023/07/07 05:59:13;;;;;;;9.03;2.30;;;16.40;1.00;;;;;;4981773;28;20421;-82
2023/07/07 06:02:13;;;;;;;12.00;2.43;;;16.50;1.00;;;;;;5006611;28;20444;-82
2023/07/07 06:05:13;;;;;;;2.30;1.90;;;16.70;1.00;;;;;;5009068;28;20426;-82
2023/07/07 06:08:13;;;;;;;11.00;2.40;;;16.80;1.00;;;;;;5001677;28;20475;-82
2023/07/07 06:11:13;;;;;;;14.83;2.90;;;17.00;1.00;;;;;;4996222;28;20431;-82
2023/07/07 06:13:43;;;;;;;11.50;1.70;;;17.40;1.00;;;;;;4999546;28;20930;-83
2023/07/07 06:16:14;;;;;;;9.97;3.03;;;17.50;1.00;;;;;;5007772;28;20807;-82
2023/07/07 06:18:49;;;;;;;8.10;2.47;;;17.60;1.00;;;;;;4989213;28;21058;-82
2023/07/07 06:21:25;;;;;;;2.13;1.70;;;17.60;1.00;;;;;;5010381;28;20437;-85
2023/07/07 06:23:51;;;;;;;2.50;1.70;;;17.70;1.00;;;;;;5004767;28;20950;-84
2023/07/07 06:26:25;;;;;;;5.73;1.57;;;17.90;1.00;;;;;;4977960;28;20427;-85
2023/07/07 06:28:56;;;;;;;2.87;1.90;;;18.00;1.00;;;;;;4991266;28;20181;-85
2023/07/07 06:31:22;;;;;;;2.77;1.80;;;18.10;1.00;;;;;;5011406;28;20428;-86
2023/07/07 06:33:55;;;;;;;3.20;1.87;;;18.40;1.00;;;;;;4990588;28;20833;-85
2023/07/07 06:36:43;;;;;;;6.63;2.20;;;18.50;1.00;;;;;;4992095;28;20794;-83
2023/07/07 06:39:43;;;;;;;13.73;2.07;;;18.60;1.00;;;;;;4996362;28;20424;-83
2023/07/07 06:42:51;;;;;;;3.57;2.00;;;18.70;1.00;;;;;;5004211;28;20423;-83
2023/07/07 06:45:19;;;;;;;6.67;1.90;;;18.90;1.00;;;;;;4990164;28;20454;-83
2023/07/07 06:48:13;;;;;;;2.30;2.10;;;19.00;1.00;;;;;;4997249;28;20784;-82
2023/07/07 06:51:13;;;;;;;14.37;2.27;;;19.20;1.00;;;;;;4998330;28;20448;-83
2023/07/07 06:54:01;;;;;;;13.97;2.03;;;19.40;1.00;;;;;;5002207;28;20435;-83
2023/07/07 06:56:37;;;;;;;4.67;1.80;;;19.60;1.00;;;;;;5000895;28;20438;-83
2023/07/07 06:59:13;;;;;;;6.50;2.00;;;19.90;1.00;;;;;;4996843;28;20420;-83
2023/07/07 07:01:43;;;;;;;4.10;1.77;;;20.10;1.00;;;;;;4993449;28;20978;-83
2023/07/07 07:04:09;;;;;;;3.90;2.63;;;20.10;1.00;;;;;;4987184;28;20441;-83
2023/07/07 07:06:40;;;;;;;6.93;1.90;;;20.30;1.00;;;;;;4993981;28;20470;-81
2023/07/07 07:09:07;;;;;;;6.93;2.13;;;20.40;1.00;;;;;;4992596;28;20175;-81
2023/07/07 07:11:38;;;;;;;2.27;1.70;;;20.80;1.00;;;;;;4995758;28;20459;-81
2023/07/07 07:14:13;;;;;;;8.70;1.87;;;20.80;1.00;;;;;;4996914;28;20427;-81
2023/07/07 07:16:45;;;;;;;3.23;1.70;;;21.00;1.00;;;;;;5009072;28;20926;-81
2023/07/07 07:19:10;;;;;;;3.00;1.53;;;21.10;1.00;;;;;;5015544;28;20895;-81
2023/07/07 07:21:37;;;;;;;5.50;1.70;;;21.30;1.00;;;;;;5005649;28;20412;-74
2023/07/07 07:24:03;;;;;;;6.63;1.67;;;21.40;1.00;;;;;;4995604;28;20193;-73
2023/07/07 07:26:29;;;;;;;13.47;2.90;;;21.70;1.00;;;;;;4995393;28;20514;-74
2023/07/07 07:28:54;;;;;;;3.30;1.87;;;21.80;1.00;;;;;;4995527;28;20895;-73
2023/07/07 07:31:20;;;;;;;3.33;2.10;;;21.90;1.00;;;;;;4996620;28;20208;-74
2023/07/07 07:33:52;;;;;;;6.10;2.00;;;22.00;1.00;;;;;;4994583;28;20178;-73
2023/07/07 07:36:18;;;;;;;5.50;1.83;;;22.10;1.00;;;;;;4994842;28;20541;-74
2023/07/07 07:38:44;;;;;;;3.50;1.90;;;22.30;1.00;;;;;;4995224;28;20502;-81
2023/07/07 07:41:10;;;;;;;4.10;1.60;;;22.40;1.00;;;;;;4994743;28;20411;-81
2023/07/07 07:43:36;;;;;;;1.90;1.80;;;22.60;1.00;;;;;;4993879;28;20640;-81
2023/07/07 07:46:01;;;;;;;4.77;1.70;;;22.70;1.00;;;;;;4993899;28;20237;-81
2023/07/07 07:48:27;;;;;;;9.77;2.03;;;22.80;1.00;;;;;;4993925;28;20190;-81
2023/07/07 07:50:52;;;;;;;3.77;1.70;;;22.90;1.00;;;;;;4994660;28;20640;-81
2023/07/07 07:53:19;;;;;;;7.77;1.87;;;23.00;1.00;;;;;;4992614;28;20675;-74
2023/07/07 07:55:44;;;;;;;5.27;2.00;;;23.20;1.00;;;;;;4996001;28;20648;-74
2023/07/07 07:58:11;;;;;;;3.20;1.70;;;23.20;1.00;;;;;;4994232;28;20436;-74
2023/07/07 08:00:36;;;;;;;2.80;2.00;;;23.40;1.00;;;;;;4993482;28;20241;-74
2023/07/07 08:03:02;;;;;;;6.47;2.20;;;23.50;1.00;;;;;;4993334;28;20444;-74
2023/07/07 08:05:28;;;;;;;6.60;1.70;;;23.60;1.00;;;;;;4994526;28;20191;-73
2023/07/07 08:07:53;;;;;;;2.07;1.93;;;23.70;1.00;;;;;;5006041;28;20196;-81
2023/07/07 08:10:43;;;;;;;3.10;2.50;;;23.90;1.00;;;;;;5001196;28;20183;-81
2023/07/07 08:13:43;;;;;;;3.33;2.20;;;24.00;1.00;;;;;;5003751;28;20219;-81
2023/07/07 08:16:13;;;;;;;5.10;1.70;;;24.20;1.00;;;;;;4996627;28;20439;-81
2023/07/07 08:18:43;;;;;;;11.17;2.20;;;24.30;1.00;;;;;;5001314;28;20438;-81
2023/07/07 08:21:13;;;;;;;5.13;1.97;;;24.40;1.00;;;;;;5006519;28;20412;-81
2023/07/07 08:23:39;;;;;;;2.23;1.87;;;24.40;1.00;;;;;;5002027;28;20501;-73
2023/07/07 08:26:05;;;;;;;7.50;1.70;;;24.50;1.00;;;;;;4983491;28;20494;-73
2023/07/07 08:28:30;;;;;;;2.40;2.00;;;24.60;1.00;;;;;;5003429;28;20208;-73
2023/07/07 08:30:56;;;;;;;1.83;1.73;;;24.70;1.00;;;;;;4999272;28;20216;-73
2023/07/07 08:33:22;;;;;;;4.40;2.03;;;24.90;1.00;;;;;;4994112;28;20184;-73
2023/07/07 08:35:47;;;;;;;2.57;2.07;;;25.00;1.00;;;;;;5000371;28;20234;-73
2023/07/07 08:38:13;;;;;;;3.30;2.17;;;25.30;1.00;;;;;;5003234;28;20194;-81
2023/07/07 08:41:13;;;;;;;2.27;2.07;;;25.30;1.00;;;;;;5005434;28;20679;-81
2023/07/07 08:43:44;;;;;;;8.00;2.63;;;25.40;1.00;;;;;;4992718;28;20835;-82
2023/07/07 08:46:52;;;;;;;7.50;1.83;;;25.50;1.00;;;;;;4993492;28;20467;-81
2023/07/07 08:49:55;;;;;;;2.90;1.97;;;25.70;1.00;;;;;;4991368;28;20452;-81
2023/07/07 08:52:32;;;;;;;3.53;2.10;;;25.90;1.00;;;;;;5007191;28;20405;-81
2023/07/07 08:55:14;;;;;;;2.77;2.03;;;26.00;1.00;;;;;;4991288;28;20440;-73
2023/07/07 08:57:59;;;;;;;2.53;1.90;;;26.10;1.00;;;;;;4985364;28;20419;-73
2023/07/07 09:00:44;;;;;;;1.97;1.60;;;26.20;1.00;;;;;;5000618;28;20423;-73
2023/07/07 09:03:27;;;;;;;3.83;1.93;;;26.30;1.00;;;;;;4997099;28;20479;-73
2023/07/07 09:06:03;;;;;;;6.67;1.57;;;26.50;1.00;;;;;;4996977;28;20448;-73
2023/07/07 09:08:49;;;;;;;3.20;1.63;;;26.50;1.00;;;;;;4994419;28;20448;-73
2023/07/07 09:11:33;;;;;;;6.20;1.80;;;26.70;1.00;;;;;;4994789;28;20467;-73
2023/07/07 09:13:59;;;;;;;1.70;1.60;;;26.90;1.00;;;;;;4996825;28;20898;-73
2023/07/07 09:16:31;;;;;;;4.03;2.00;;;27.00;1.00;;;;;;4998587;28;20460;-73
2023/07/07 09:19:22;;;;;;;2.57;2.00;;;27.10;1.00;;;;;;5004076;28;20405;-73
2023/07/07 09:21:55;;;;;;;2.40;1.93;;;27.20;1.00;;;;;;4994025;28;20425;-74
2023/07/07 09:25:05;;;;;;;1.90;1.77;;;27.30;1.00;;;;;;4996884;28;20500;-73
2023/07/07 09:27:44;;;;;;;6.20;2.20;;;27.60;1.00;;;;;;5001394;28;20491;-73
2023/07/07 09:30:44;;;;;;;10.40;2.30;;;27.70;1.00;;;;;;5003534;28;20422;-73
2023/07/07 09:33:15;;;;;;;3.87;1.80;;;27.80;1.00;;;;;;4991794;28;20520;-73
2023/07/07 09:36:05;;;;;;;2.33;2.10;;;28.00;1.00;;;;;;4993100;28;20430;-73
2023/07/07 09:39:11;;;;;;;5.63;2.20;;;28.10;1.00;;;;;;5006473;28;20428;-81
2023/07/07 09:42:13;;;;;;;4.03;2.30;;;28.00;1.00;;;;;;4994846;28;20962;-81
2023/07/07 09:45:13;;;;;;;2.97;1.80;;;28.20;1.00;;;;;;5001048;28;20549;-81
2023/07/07 09:47:56;;;;;;;2.30;2.10;;;28.30;1.00;;;;;;4991574;28;20481;-81
2023/07/07 09:50:47;;;;;;;4.30;1.90;;;28.60;1.00;;;;;;4992044;28;20415;-81
2023/07/07 09:53:21;;;;;;;5.23;2.23;;;28.60;1.00;;;;;;5005002;28;20410;-73
2023/07/07 09:55:47;;;;;;;3.33;2.00;;;28.70;1.00;;;;;;4989708;28;20444;-73
2023/07/07 09:58:34;;;;;;;3.57;2.10;;;28.90;1.00;;;;;;4992203;28;20538;-73
2023/07/07 10:01:02;;;;;;;4.93;2.30;;;28.90;1.00;;;;;;5000214;28;20795;-73
2023/07/07 10:03:43;;;;;;;9.10;2.30;;;28.90;1.00;;;;;;4993236;28;20818;-73
2023/07/07 10:09:31;;;;;;;2.43;2.23;;;29.00;1.00;;;;;;5001642;28;20980;-90
2023/07/07 10:15:28;;;;;;;5.93;2.20;;;29.30;1.00;;;;;;4999627;28;20683;-90
2023/07/07 10:24:37;;;;;;;5.73;2.50;;;29.70;1.00;;;;;;4989089;28;20451;-88
2023/07/07 10:30:38;;;;;;;9.50;2.37;;;;;;;;;;4993947;28;20185;-86
2023/07/07 10:36:33;;;;;;;8.07;3.00;;;29.90;1.00;;;;;;5010435;28;20400;-88
2023/07/07 10:39:02;;;;;;;2.50;2.30;;;30.00;1.00;;;;;;4996020;28;20429;-89
2023/07/07 10:42:01;;;;;;;4.37;2.93;;;29.80;1.00;;;;;;4998804;28;20424;-89
2023/07/07 10:44:27;;;;;;;6.10;2.90;;;29.90;1.00;;;;;;4996086;28;20920;-89
2023/07/07 10:50:55;;;;;;;2.63;2.43;;;30.20;1.00;;;;;;4992627;28;20388;-90
2023/07/07 11:03:27;;;;;;;6.13;3.30;;;30.70;1.00;;;;;;5013983;28;20482;-88
2023/07/07 11:09:52;;;;;;;3.20;2.80;;;30.70;1.00;;;;;;4999826;28;20192;-90
2023/07/07 11:12:55;;;;;;;9.40;3.07;;;30.70;1.00;;;;;;5002042;28;20829;-90
2023/07/07 11:23:01;;;;;;;8.40;3.80;;;30.90;1.00;;;;;;4988407;28;20420;-89
2023/07/07 11:26:08;;;;;;;4.17;3.40;;;30.90;1.00;;;;;;5012113;28;20505;-88
2023/07/07 11:28:53;;;;;;;11.43;3.50;;;;;;;;;;4995635;28;20484;-88
2023/07/07 11:31:54;;;;;;;8.40;3.20;;;30.80;1.00;;;;;;4999875;28;20448;-88
2023/07/07 11:37:59;;;;;;;4.97;3.53;;;;;;;;;;4990283;28;20439;-88
2023/07/07 11:40:52;;;;;;;4.27;3.60;;;30.70;1.00;;;;;;4996904;28;20421;-88
2023/07/07 11:43:40;;;;;;;5.37;3.70;;;30.90;1.00;;;;;;5011625;28;20790;-88
2023/07/07 11:49:23;;;;;;;4.73;3.47;;;;;;;;;;4976552;28;20425;-88
2023/07/07 11:55:49;;;;;;;9.50;4.23;;;31.40;1.00;;;;;;5005979;28;20489;-89
2023/07/07 12:01:47;;;;;;;11.50;4.87;;;31.90;1.00;;;;;;4996620;28;20455;-89
2023/07/07 12:04:32;;;;;;;13.23;4.67;;;;;;;;;;5005141;28;20434;-88
2023/07/07 12:07:05;;;;;;;9.10;5.23;;;32.00;1.00;;;;;;5001231;28;20441;-90
2023/07/07 12:16:21;;;;;;;8.23;5.30;;;32.30;1.00;;;;;;4976636;28;20804;-89
2023/07/07 12:22:19;;;;;;;6.50;5.10;;;32.60;1.00;;;;;;4993375;28;20934;-90
2023/07/07 12:28:49;;;;;;;5.87;4.77;;;32.70;1.00;;;;;;4995837;28;20862;-89
2023/07/07 12:35:16;;;;;;;12.13;6.97;;;32.50;1.00;;;;;;4997133;28;20444;-89
2023/07/07 12:38:33;;;;;;;11.70;5.70;;;32.40;1.00;;;;;;4980017;28;20519;-90
2023/07/07 12:51:08;;;;;;;7.17;5.40;;;32.70;1.00;;;;;;5008772;28;20463;-81
2023/07/07 12:53:46;;;;;;;7.57;5.30;;;32.80;1.00;;;;;;4992399;28;20412;-81
2023/07/07 12:56:22;;;;;;;6.97;4.73;;;32.80;1.00;;;;;;4992288;28;20400;-75
2023/07/07 12:58:53;;;;;;;8.20;5.20;;;32.70;1.00;;;;;;5000433;28;20501;-73
2023/07/07 13:01:18;;;;;;;7.27;4.73;;;32.80;1.00;;;;;;5009486;28;21024;-74
2023/07/07 13:04:01;;;;;;;7.20;4.67;;;33.00;1.00;;;;;;4994504;28;20467;-74
2023/07/07 13:06:51;;;;;;;5.97;4.50;;;33.00;1.00;;;;;;4991745;28;20178;-73
2023/07/07 13:09:20;;;;;;;7.80;4.73;;;33.00;1.00;;;;;;4995841;28;20535;-73
2023/07/07 13:18:29;;;;;;;6.07;4.47;;;33.20;1.00;;;;;;5007743;28;20593;-87
2023/07/07 13:21:11;;;;;;;7.03;4.40;;;33.20;1.00;;;;;;4993572;28;20433;-88
2023/07/07 13:26:59;;;;;;;6.30;3.97;;;33.50;1.00;;;;;;5003799;28;20479;-87
2023/07/07 13:29:27;;;;;;;5.77;4.20;;;33.40;1.00;;;;;;5002838;28;20936;-86
2023/07/07 13:31:53;;;;;;;7.83;4.27;;;33.60;1.00;;;;;;5008409;28;20177;-87
2023/07/07 13:34:28;;;;;;;6.30;4.33;;;33.70;1.00;;;;;;5010415;28;20415;-87
2023/07/07 13:36:53;;;;;;;9.80;4.40;;;33.70;1.00;;;;;;4992315;28;20178;-87
2023/07/07 13:39:30;;;;;;;7.20;5.20;;;33.60;1.00;;;;;;4993265;28;20432;-86
2023/07/07 13:41:58;;;;;;;9.57;5.00;;;34.20;1.00;;;;;;4998444;28;20240;-87
2023/07/07 13:44:34;;;;;;;7.90;4.90;;;34.20;1.00;;;;;;4989194;28;20998;-87
2023/07/07 13:47:05;;;;;;;6.90;4.83;;;34.00;1.00;;;;;;4995741;28;20463;-87
2023/07/07 13:53:25;;;;;;;5.37;4.60;;;34.10;1.00;;;;;;4995734;28;20475;-82
2023/07/07 13:55:52;;;;;;;7.70;4.80;;;34.40;1.00;;;;;;4988548;28;20432;-81
2023/07/07 13:58:24;;;;;;;7.70;5.40;;;34.40;1.00;;;;;;4999718;28;20446;-91
2023/07/07 14:01:22;;;;;;;11.17;5.17;;;34.50;1.00;;;;;;4988854;28;20543;-91
2023/07/07 14:03:49;;;;;;;6.10;4.60;;;34.60;1.00;;;;;;4987785;28;20442;-91
2023/07/07 14:06:21;;;;;;;6.90;5.40;;;34.60;1.00;;;;;;4982186;28;20429;-90
2023/07/07 14:08:47;;;;;;;10.13;5.80;;;34.80;1.00;;;;;;4994852;28;20986;-90
2023/07/07 14:11:22;;;;;;;10.97;5.50;;;34.80;1.00;;;;;;4994741;28;20522;-89
2023/07/07 14:14:00;;;;;;;6.97;5.23;;;34.40;1.00;;;;;;5003431;28;20432;-82
2023/07/07 14:16:33;;;;;;;6.57;4.90;;;34.40;1.00;;;;;;4992515;28;20433;-81
2023/07/07 14:19:12;;;;;;;13.63;5.77;;;33.90;1.00;;;;;;5000959;28;20432;-82
2023/07/07 14:21:39;;;;;;;7.00;5.40;;;33.90;1.00;;;;;;4993578;28;20421;-82
2023/07/07 14:24:31;;;;;;;5.50;4.70;;;33.70;1.00;;;;;;4993399;28;20424;-82
2023/07/07 14:26:59;;;;;;;8.27;5.70;;;33.80;1.00;;;;;;5007428;28;20464;-82
2023/07/07 14:29:44;;;;;;;8.70;6.03;;;34.10;1.00;;;;;;5003066;28;20428;-81
2023/07/07 14:35:33;;;;;;;15.03;5.93;;;34.60;1.00;;;;;;4996586;28;20414;-81
2023/07/07 14:41:35;;;;;;;6.57;4.80;;;34.90;1.00;;;;;;5000871;28;20495;-81
2023/07/07 14:44:42;;;;;;;9.00;5.60;;;35.00;1.00;;;;;;5003428;28;20420;-81
2023/07/07 14:50:30;;;;;;;7.07;5.57;;;35.00;1.00;;;;;;4996172;28;20513;-81
2023/07/07 14:53:02;;;;;;;8.73;5.43;;;35.20;1.00;;;;;;5003494;28;20436;-81
2023/07/07 14:56:10;;;;;;;7.70;5.60;;;35.20;1.00;;;;;;5014588;28;20888;-81
2023/07/07 15:15:26;;;;;;;10.73;5.73;;;36.60;1.00;;;;;;5014566;28;20559;-81
2023/07/07 15:17:53;;;;;;;7.10;5.60;;;38.30;1.00;;;;;;5015585;28;20438;-81
2023/07/07 15:20:21;;;;;;;6.10;5.50;;;39.60;1.00;;;;;;4998442;28;20187;-81
2023/07/07 15:26:30;;;;;;;12.93;5.40;;;41.20;1.00;;;;;;4987890;28;20975;-82
2023/07/07 15:29:21;;;;;;;6.00;5.37;;;42.70;1.00;;;;;;4999432;28;20436;-90
2023/07/07 15:31:49;;;;;;;12.73;6.23;;;44.20;1.00;;;;;;5001560;28;20463;-90
2023/07/07 15:44:22;;;;;;;5.23;4.70;;;48.50;1.00;;;;;;4983246;28;20966;-80
2023/07/07 15:46:49;;;;;;;54.63;6.33;;;48.80;1.00;;;;;;5009528;28;20427;-80
2023/07/07 15:49:37;;;;;;;4.83;4.43;;;49.50;1.00;;;;;;4996036;28;20966;-80
2023/07/07 15:55:44;;;;;;;8.57;3.93;;;50.80;1.00;;;;;;5000276;28;20495;-80
2023/07/07 15:58:14;;;;;;;16.60;5.50;;;51.30;1.00;;;;;;5005575;28;20466;-82
2023/07/07 16:00:56;;;;;;;6.97;4.37;;;51.00;1.00;;;;;;5005992;28;20436;-79
2023/07/07 16:06:44;;;;;;;4.57;4.27;;;50.60;1.00;;;;;;4999824;28;20471;-80
2023/07/07 16:09:43;;;;;;;6.50;5.00;;;49.70;1.00;;;;;;4994941;28;20470;-80
2023/07/07 16:12:16;;;;;;;12.50;4.90;;;49.10;1.00;;;;;;5004213;28;20417;-80
2023/07/07 16:18:09;;;;;;;5.00;4.60;;;49.70;1.00;;;;;;4996685;28;20486;-80
2023/07/07 16:20:56;;;;;;;4.80;3.90;;;50.80;1.00;;;;;;4995432;28;20468;-79
2023/07/07 16:23:26;;;;;;;5.40;4.90;;;50.80;1.00;;;;;;4994708;28;20459;-79
2023/07/07 16:26:01;;;;;;;5.47;4.73;;;51.00;1.00;;;;;;5002166;28;20949;-79
2023/07/07 16:28:43;;;;;;;7.90;4.27;;;51.30;1.00;;;;;;4998848;28;20987;-90
2023/07/07 16:37:53;;;;;;;16.07;4.30;;;51.30;1.00;;;;;;5002738;28;20807;-89
2023/07/07 16:47:36;;;;;;;5.50;3.77;;;51.50;1.00;;;;;;4996384;28;20411;-91
2023/07/07 16:50:49;;;;;;;11.20;4.23;;;51.20;1.00;;;;;;5005179;28;20439;-91
2023/07/07 16:53:15;;;;;;;5.00;4.10;;;51.60;1.00;;;;;;4997208;28;20439;-73
2023/07/07 16:55:41;;;;;;;5.63;4.00;;;51.20;1.00;;;;;;4998332;28;20424;-73
2023/07/07 16:58:13;;;;;;;6.30;4.70;;;51.40;1.00;;;;;;5005064;28;20224;-73
2023/07/07 17:00:38;;;;;;;4.90;4.50;;;51.80;1.00;;;;;;4992154;28;20213;-73
2023/07/07 17:03:04;;;;;;;9.17;4.87;;;52.10;1.00;;;;;;4994477;28;20972;-72
2023/07/07 17:05:30;;;;;;;4.50;4.20;;;51.20;1.00;;;;;;4992778;28;20193;-73
2023/07/07 17:07:56;;;;;;;4.23;3.93;;;51.00;1.00;;;;;;5003383;28;20203;-73
2023/07/07 17:10:32;;;;;;;4.87;4.30;;;50.50;1.00;;;;;;4995226;28;20440;-74
2023/07/07 17:12:58;;;;;;;8.00;4.67;;;50.60;1.00;;;;;;5000092;28;20242;-71
2023/07/07 17:15:24;;;;;;;9.47;4.77;;;50.70;1.00;;;;;;4994229;28;20413;-71
2023/07/07 17:17:50;;;;;;;5.27;4.40;;;50.90;1.00;;;;;;4993431;28;20951;-71
2023/07/07 17:20:19;;;;;;;11.53;4.10;;;51.20;1.00;;;;;;4993101;28;20436;-71
2023/07/07 17:22:49;;;;;;;4.40;4.07;;;51.50;1.00;;;;;;4992691;28;20177;-71
2023/07/07 17:25:17;;;;;;;5.30;4.80;;;51.80;1.00;;;;;;4992682;28;20490;-71
2023/07/07 17:27:43;;;;;;;4.97;4.67;;;51.40;1.00;;;;;;4993657;28;21005;-71
2023/07/07 17:30:22;;;;;;;5.40;4.90;;;51.50;1.00;;;;;;4995915;28;20444;-71
2023/07/07 17:32:49;;;;;;;8.50;5.10;;;50.90;1.00;;;;;;4993066;28;20485;-71
2023/07/07 17:35:17;;;;;;;5.07;4.67;;;50.80;1.00;;;;;;4996880;28;20923;-71
2023/07/07 17:37:43;;;;;;;5.60;5.10;;;50.80;1.00;;;;;;4996949;28;20607;-70
2023/07/07 17:40:31;;;;;;;5.03;4.70;;;50.50;1.00;;;;;;4997698;28;20442;-74
2023/07/07 17:42:57;;;;;;;5.33;4.93;;;49.60;1.00;;;;;;4997141;28;21065;-74
2023/07/07 17:45:22;;;;;;;9.33;5.40;;;48.20;1.00;;;;;;4997905;28;20472;-73
2023/07/07 17:51:37;;;;;;;6.30;5.53;;;45.10;1.00;;;;;;4989342;28;20197;-85
2023/07/07 17:54:55;;;;;;;6.27;5.53;;;43.40;1.00;;;;;;5002355;28;20800;-86
2023/07/07 17:57:44;;;;;;;8.83;5.93;;;41.90;1.00;;;;;;5006575;28;20456;-87
2023/07/07 18:00:38;;;;;;;16.47;6.60;;;40.50;1.00;;;;;;4997393;28;20460;-87